Time,TemperatureF,DewpointF,PressureIn,WindDirection,WindDirectionDegrees,WindSpeedMPH,WindSpeedGustMPH,Humidity,HourlyPrecipIn,Conditions,Clouds,dailyrainin,SoftwareType,DateUTC
2013-05-06 00:01:00,61.0,17.2,29.96,ESE,112,11.0,11.0,18,0.00,,---,0.00,VWS V14.01,2013-05-06 06:01:00,
2013-05-06 00:06:00,60.8,17.0,29.96,ESE,112,10.7,11.0,18,0.00,,---,0.00,VWS V14.01,2013-05-06 06:06:00,
2013-05-06 00:11:00,60.8,17.0,29.96,ESE,112,9.2,9.2,18,0.00,,---,0.00,VWS V14.01,2013-05-06 06:11:00,
2013-05-06 00:16:00,60.5,16.8,29.96,ESE,112,8.1,8.1,18,0.00,,---,0.00,VWS V14.01,2013-05-06 06:16:00,
2013-05-06 00:21:00,60.1,17.7,29.96,SE,135,7.4,7.4,19,0.00,,---,0.00,VWS V14.01,2013-05-06 06:21:00,
2013-05-06 00:26:00,59.9,17.6,29.96,SE,135,5.4,5.4,19,0.00,,---,0.00,VWS V14.01,2013-05-06 06:26:00,
2013-05-06 00:31:00,59.9,17.6,29.96,SSE,158,7.4,7.4,19,0.00,,---,0.00,VWS V14.01,2013-05-06 06:31:00,
2013-05-06 00:36:00,59.9,17.6,29.96,East,90,5.1,5.1,19,0.00,,---,0.00,VWS V14.01,2013-05-06 06:36:00,
2013-05-06 00:41:00,59.8,17.5,29.96,NE,45,7.4,7.4,19,0.00,,---,0.00,VWS V14.01,2013-05-06 06:41:00,
2013-05-06 00:46:00,59.6,17.3,29.96,ENE,68,7.6,7.6,19,0.00,,---,0.00,VWS V14.01,2013-05-06 06:46:00,
2013-05-06 00:51:00,59.8,17.5,29.96,East,90,7.4,7.4,19,0.00,,---,0.00,VWS V14.01,2013-05-06 06:51:00,
2013-05-06 00:56:00,59.6,17.3,29.95,East,90,7.6,7.6,19,0.00,,---,0.00,VWS V14.01,2013-05-06 06:56:00,
2013-05-06 01:01:00,59.6,17.3,29.95,ESE,112,4.3,4.9,19,0.00,,---,0.00,VWS V14.01,2013-05-06 07:01:00,
2013-05-06 01:06:00,59.8,17.5,29.95,ESE,112,7.4,8.3,19,0.00,,---,0.00,VWS V14.01,2013-05-06 07:06:00,
2013-05-06 01:11:00,60.1,17.7,29.95,East,90,3.6,3.6,19,0.00,,---,0.00,VWS V14.01,2013-05-06 07:11:00,
2013-05-06 01:16:00,60.1,17.7,29.95,East,90,5.4,5.4,19,0.00,,---,0.00,VWS V14.01,2013-05-06 07:16:00,
2013-05-06 01:21:00,60.3,17.9,29.95,ESE,112,7.4,7.4,19,0.00,,---,0.00,VWS V14.01,2013-05-06 07:21:00,
2013-05-06 01:26:00,60.3,17.9,29.95,ESE,112,9.2,9.2,19,0.00,,---,0.00,VWS V14.01,2013-05-06 07:26:00,
2013-05-06 01:31:00,60.5,18.1,29.94,ESE,112,6.7,6.7,19,0.00,,---,0.00,VWS V14.01,2013-05-06 07:31:00,
2013-05-06 01:36:00,60.5,18.1,29.94,ESE,112,6.7,6.7,19,0.00,,---,0.00,VWS V14.01,2013-05-06 07:36:00,
2013-05-06 01:41:00,60.7,18.2,29.94,SE,135,8.5,8.5,19,0.00,,---,0.00,VWS V14.01,2013-05-06 07:41:00,
2013-05-06 01:46:00,60.5,18.1,29.94,East,90,8.5,8.5,19,0.00,,---,0.00,VWS V14.01,2013-05-06 07:46:00,
2013-05-06 01:51:00,60.1,17.7,29.94,SSE,158,4.5,4.5,19,0.00,,---,0.00,VWS V14.01,2013-05-06 07:51:00,
2013-05-06 01:56:00,59.9,17.6,29.94,SE,135,4.0,4.0,19,0.00,,---,0.00,VWS V14.01,2013-05-06 07:56:00,
2013-05-06 02:01:00,59.9,17.6,29.94,ESE,112,5.6,5.6,19,0.00,,---,0.00,VWS V14.01,2013-05-06 08:01:00,
2013-05-06 02:06:00,59.8,17.5,29.94,East,90,11.4,11.4,19,0.00,,---,0.00,VWS V14.01,2013-05-06 08:06:00,
2013-05-06 02:11:00,59.8,17.5,29.94,ESE,112,3.4,3.4,19,0.00,,---,0.00,VWS V14.01,2013-05-06 08:11:00,
2013-05-06 02:16:00,59.6,17.3,29.94,ESE,112,6.5,6.5,19,0.00,,---,0.00,VWS V14.01,2013-05-06 08:16:00,
2013-05-06 02:21:00,59.4,18.3,29.93,ESE,112,3.4,3.4,20,0.00,,---,0.00,VWS V14.01,2013-05-06 08:21:00,
2013-05-06 02:26:00,59.6,19.6,29.93,North,0,6.9,6.9,21,0.00,,---,0.00,VWS V14.01,2013-05-06 08:26:00,
2013-05-06 02:31:00,59.8,19.8,29.93,SE,135,1.3,1.3,21,0.00,,---,0.00,VWS V14.01,2013-05-06 08:31:00,
2013-05-06 02:36:00,59.8,19.8,29.93,SSE,158,3.4,3.4,21,0.00,,---,0.00,VWS V14.01,2013-05-06 08:36:00,
2013-05-06 02:41:00,59.9,19.9,29.93,SE,135,3.4,3.4,21,0.00,,---,0.00,VWS V14.01,2013-05-06 08:41:00,
2013-05-06 02:46:00,59.6,19.6,29.93,ESE,112,4.7,4.7,21,0.00,,---,0.00,VWS V14.01,2013-05-06 08:46:00,
2013-05-06 02:51:00,59.4,19.5,29.93,SSE,158,4.7,4.7,21,0.00,,---,0.00,VWS V14.01,2013-05-06 08:51:00,
2013-05-06 02:56:00,59.6,18.5,29.93,ESE,112,4.9,4.9,20,0.00,,---,0.00,VWS V14.01,2013-05-06 08:56:00,
2013-05-06 03:01:00,59.4,19.5,29.93,ESE,112,4.9,4.9,21,0.00,,---,0.00,VWS V14.01,2013-05-06 09:01:00,
2013-05-06 03:06:00,59.4,19.5,29.93,SSE,158,5.1,5.1,21,0.00,,---,0.00,VWS V14.01,2013-05-06 09:06:00,
2013-05-06 03:11:00,59.4,18.3,29.94,SE,135,2.5,2.5,20,0.00,,---,0.00,VWS V14.01,2013-05-06 09:11:00,
2013-05-06 03:16:00,59.2,19.3,29.94,SE,135,8.3,8.3,21,0.00,,---,0.00,VWS V14.01,2013-05-06 09:16:00,
2013-05-06 03:21:00,59.2,19.3,29.94,SE,135,2.0,2.0,21,0.00,,---,0.00,VWS V14.01,2013-05-06 09:21:00,
2013-05-06 03:26:00,59.2,19.3,29.94,ENE,68,6.5,6.5,21,0.00,,---,0.00,VWS V14.01,2013-05-06 09:26:00,
2013-05-06 03:31:00,59.0,19.1,29.94,SE,135,4.3,4.3,21,0.00,,---,0.00,VWS V14.01,2013-05-06 09:31:00,
2013-05-06 03:36:00,58.9,17.9,29.94,SE,135,3.4,3.4,20,0.00,,---,0.00,VWS V14.01,2013-05-06 09:36:00,
2013-05-06 03:41:00,58.7,17.8,29.94,ESE,112,2.5,2.5,20,0.00,,---,0.00,VWS V14.01,2013-05-06 09:41:00,
2013-05-06 03:46:00,59.0,18.0,29.94,SE,135,2.7,2.7,20,0.00,,---,0.00,VWS V14.01,2013-05-06 09:46:00,
2013-05-06 03:51:00,58.9,17.9,29.94,SE,135,4.0,4.0,20,0.00,,---,0.00,VWS V14.01,2013-05-06 09:51:00,
2013-05-06 03:56:00,59.0,18.0,29.94,SSE,158,0.4,0.4,20,0.00,,---,0.00,VWS V14.01,2013-05-06 09:56:00,
2013-05-06 04:01:00,58.9,17.9,29.94,ESE,112,3.4,3.4,20,0.00,,---,0.00,VWS V14.01,2013-05-06 10:01:00,
2013-05-06 04:06:00,58.7,18.9,29.93,ESE,112,1.8,1.8,21,0.00,,---,0.00,VWS V14.01,2013-05-06 10:06:00,
2013-05-06 04:11:00,59.0,19.1,29.93,ESE,112,5.4,5.4,21,0.00,,---,0.00,VWS V14.01,2013-05-06 10:11:00,
2013-05-06 04:16:00,59.0,19.1,29.93,SE,135,0.0,0.0,21,0.00,,---,0.00,VWS V14.01,2013-05-06 10:16:00,
2013-05-06 04:21:00,58.7,18.9,29.93,ENE,68,0.0,0.0,21,0.00,,---,0.00,VWS V14.01,2013-05-06 10:21:00,
2013-05-06 04:26:00,58.5,18.7,29.93,West,270,3.1,3.1,21,0.00,,---,0.00,VWS V14.01,2013-05-06 10:26:00,
2013-05-06 04:31:00,57.8,18.1,29.93,West,270,0.0,0.0,21,0.00,,---,0.00,VWS V14.01,2013-05-06 10:31:00,
2013-05-06 04:36:00,56.9,18.5,29.93,WNW,292,1.6,1.6,22,0.00,,---,0.00,VWS V14.01,2013-05-06 10:36:00,
2013-05-06 04:41:00,56.5,18.1,29.93,WNW,292,0.0,0.0,22,0.00,,---,0.00,VWS V14.01,2013-05-06 10:41:00,
2013-05-06 04:46:00,56.2,18.9,29.93,NNW,338,0.9,0.9,23,0.00,,---,0.00,VWS V14.01,2013-05-06 10:46:00,
2013-05-06 04:51:00,56.0,18.8,29.93,NW,315,0.9,0.9,23,0.00,,---,0.00,VWS V14.01,2013-05-06 10:51:00,
2013-05-06 04:56:00,56.0,18.8,29.92,NNW,338,0.0,0.0,23,0.00,,---,0.00,VWS V14.01,2013-05-06 10:56:00,
2013-05-06 05:01:00,56.0,17.7,29.92,NW,315,1.8,1.8,22,0.00,,---,0.00,VWS V14.01,2013-05-06 11:01:00,
2013-05-06 05:06:00,55.8,18.6,29.93,NW,315,0.0,0.0,23,0.00,,---,0.00,VWS V14.01,2013-05-06 11:06:00,
2013-05-06 05:11:00,55.8,18.6,29.93,North,0,0.2,0.2,23,0.00,,---,0.00,VWS V14.01,2013-05-06 11:11:00,
2013-05-06 05:16:00,55.8,18.6,29.92,North,0,0.9,0.9,23,0.00,,---,0.00,VWS V14.01,2013-05-06 11:16:00,
2013-05-06 05:21:00,55.6,18.4,29.93,North,0,0.0,0.0,23,0.00,,---,0.00,VWS V14.01,2013-05-06 11:21:00,
2013-05-06 05:26:00,55.4,18.2,29.92,NW,315,0.2,0.2,23,0.00,,---,0.00,VWS V14.01,2013-05-06 11:26:00,
2013-05-06 05:31:00,55.4,19.2,29.92,NNW,338,0.0,0.0,24,0.00,,---,0.00,VWS V14.01,2013-05-06 11:31:00,
2013-05-06 05:36:00,55.4,19.2,29.92,NW,315,0.4,0.4,24,0.00,,---,0.00,VWS V14.01,2013-05-06 11:36:00,
2013-05-06 05:41:00,55.6,19.4,29.92,SW,225,2.2,2.2,24,0.00,,---,0.00,VWS V14.01,2013-05-06 11:41:00,
2013-05-06 05:46:00,55.6,19.4,29.92,WSW,248,0.2,0.2,24,0.00,,---,0.00,VWS V14.01,2013-05-06 11:46:00,
2013-05-06 05:51:00,55.4,19.2,29.92,SSW,202,0.0,0.0,24,0.00,,---,0.00,VWS V14.01,2013-05-06 11:51:00,
2013-05-06 05:56:00,55.3,19.1,29.92,SE,135,0.0,0.0,24,0.00,,---,0.00,VWS V14.01,2013-05-06 11:56:00,
2013-05-06 06:01:00,55.3,19.1,29.92,North,0,0.4,0.4,24,0.00,,---,0.00,VWS V14.01,2013-05-06 12:01:00,
2013-05-06 06:06:00,55.6,19.4,29.92,SE,135,0.4,0.4,24,0.00,,---,0.00,VWS V14.01,2013-05-06 12:06:00,
2013-05-06 06:11:00,56.2,19.9,29.92,SE,135,0.0,0.0,24,0.00,,---,0.00,VWS V14.01,2013-05-06 12:11:00,
2013-05-06 06:16:00,56.2,19.9,29.92,West,270,0.2,0.2,24,0.00,,---,0.00,VWS V14.01,2013-05-06 12:16:00,
2013-05-06 06:21:00,55.4,20.2,29.91,WNW,292,0.9,0.9,25,0.00,,---,0.00,VWS V14.01,2013-05-06 12:21:00,
2013-05-06 06:26:00,54.9,19.8,29.92,West,270,0.0,0.0,25,0.00,,---,0.00,VWS V14.01,2013-05-06 12:26:00,
2013-05-06 06:31:00,55.1,19.9,29.91,NNW,338,0.0,0.0,25,0.00,,---,0.00,VWS V14.01,2013-05-06 12:31:00,
2013-05-06 06:36:00,54.9,21.6,29.92,South,180,1.1,1.1,27,0.00,,---,0.00,VWS V14.01,2013-05-06 12:36:00,
2013-05-06 06:41:00,54.9,20.7,29.92,NE,45,0.0,0.0,26,0.00,,---,0.00,VWS V14.01,2013-05-06 12:41:00,
2013-05-06 06:46:00,55.4,22.9,29.92,SE,135,0.7,0.7,28,0.00,,---,0.00,VWS V14.01,2013-05-06 12:46:00,
2013-05-06 06:51:00,57.2,23.5,29.91,SE,135,3.8,3.8,27,0.00,,---,0.00,VWS V14.01,2013-05-06 12:51:00,
2013-05-06 06:56:00,58.7,24.8,29.92,SE,135,2.7,2.7,27,0.00,,---,0.00,VWS V14.01,2013-05-06 12:56:00,
2013-05-06 07:01:00,59.0,25.1,29.92,ESE,112,4.3,4.3,27,0.00,,---,0.00,VWS V14.01,2013-05-06 13:01:00,
2013-05-06 07:06:00,59.4,23.6,29.92,SE,135,6.0,6.0,25,0.00,,---,0.00,VWS V14.01,2013-05-06 13:06:00,
2013-05-06 07:11:00,59.4,22.6,29.92,ESE,112,4.0,4.0,24,0.00,,---,0.00,VWS V14.01,2013-05-06 13:11:00,
2013-05-06 07:16:00,59.4,21.6,29.92,SE,135,6.0,6.0,23,0.00,,---,0.00,VWS V14.01,2013-05-06 13:16:00,
2013-05-06 07:21:00,59.4,20.6,29.93,SE,135,6.5,6.5,22,0.00,,---,0.00,VWS V14.01,2013-05-06 13:21:00,
2013-05-06 07:26:00,59.0,20.2,29.93,ESE,112,5.1,5.1,22,0.00,,---,0.00,VWS V14.01,2013-05-06 13:26:00,
2013-05-06 07:31:00,58.7,20.0,29.93,ESE,112,6.3,6.3,22,0.00,,---,0.00,VWS V14.01,2013-05-06 13:31:00,
2013-05-06 07:36:00,58.5,19.8,29.93,ENE,68,4.7,4.7,22,0.00,,---,0.00,VWS V14.01,2013-05-06 13:36:00,
2013-05-06 07:41:00,58.9,20.1,29.93,ESE,112,7.2,7.2,22,0.00,,---,0.00,VWS V14.01,2013-05-06 13:41:00,
2013-05-06 07:46:00,59.0,20.2,29.93,SE,135,5.4,5.4,22,0.00,,---,0.00,VWS V14.01,2013-05-06 13:46:00,
2013-05-06 07:50:00,58.9,20.1,29.93,SE,135,7.4,7.4,22,0.00,,---,0.00,VWS V14.01,2013-05-06 13:50:00,
2013-05-06 07:55:00,58.9,20.1,29.94,SE,135,5.6,5.6,22,0.00,,---,0.00,VWS V14.01,2013-05-06 13:55:00,
2013-05-06 08:00:00,58.7,21.0,29.94,SE,135,3.8,3.8,23,0.00,,---,0.00,VWS V14.01,2013-05-06 14:00:00,
2013-05-06 08:05:00,58.7,20.0,29.94,SE,135,6.3,6.3,22,0.00,,---,0.00,VWS V14.01,2013-05-06 14:05:00,
2013-05-06 08:10:00,58.7,20.0,29.94,ESE,112,8.1,8.1,22,0.00,,---,0.00,VWS V14.01,2013-05-06 14:10:00,
2013-05-06 08:15:00,58.9,21.2,29.95,ESE,112,6.9,6.9,23,0.00,,---,0.00,VWS V14.01,2013-05-06 14:15:00,
2013-05-06 08:20:00,59.2,21.4,29.95,SE,135,6.9,6.9,23,0.00,,---,0.00,VWS V14.01,2013-05-06 14:20:00,
2013-05-06 08:25:00,59.2,21.4,29.95,SE,135,3.1,3.1,23,0.00,,---,0.00,VWS V14.01,2013-05-06 14:25:00,
2013-05-06 08:30:00,59.4,21.6,29.96,SE,135,3.4,3.4,23,0.00,,---,0.00,VWS V14.01,2013-05-06 14:30:00,
2013-05-06 08:35:00,59.8,23.0,29.96,SE,135,1.1,1.1,24,0.00,,---,0.00,VWS V14.01,2013-05-06 14:35:00,
2013-05-06 08:40:00,60.3,23.4,29.96,SSE,158,1.1,1.1,24,0.00,,---,0.00,VWS V14.01,2013-05-06 14:40:00,
2013-05-06 08:45:00,60.5,23.5,29.96,ESE,112,6.3,6.3,24,0.00,,---,0.00,VWS V14.01,2013-05-06 14:45:00,
2013-05-06 08:50:00,60.8,23.8,29.96,SE,135,5.6,5.6,24,0.00,,---,0.00,VWS V14.01,2013-05-06 14:50:00,
2013-05-06 08:55:00,61.6,24.5,29.96,SSE,158,3.4,3.4,24,0.00,,---,0.00,VWS V14.01,2013-05-06 14:55:00,
2013-05-06 09:00:00,61.4,25.3,29.96,SE,135,1.8,1.8,25,0.00,,---,0.00,VWS V14.01,2013-05-06 15:00:00,
2013-05-06 09:05:00,60.8,24.8,29.96,ESE,112,1.3,1.3,25,0.00,,---,0.00,VWS V14.01,2013-05-06 15:05:00,
2013-05-06 09:10:00,60.5,24.5,29.96,SE,135,4.5,4.5,25,0.00,,---,0.00,VWS V14.01,2013-05-06 15:10:00,
2013-05-06 09:15:00,60.3,24.4,29.96,South,180,2.5,2.5,25,0.00,,---,0.00,VWS V14.01,2013-05-06 15:15:00,
2013-05-06 09:20:00,60.5,23.5,29.96,SSW,202,3.4,3.4,24,0.00,,---,0.00,VWS V14.01,2013-05-06 15:20:00,
2013-05-06 09:25:00,60.5,22.5,29.96,SE,135,4.0,4.0,23,0.00,,---,0.00,VWS V14.01,2013-05-06 15:25:00,
2013-05-06 09:30:00,60.5,23.5,29.96,SE,135,3.6,3.6,24,0.00,,---,0.00,VWS V14.01,2013-05-06 15:30:00,
2013-05-06 09:35:00,60.8,23.8,29.96,ESE,112,5.4,5.4,24,0.00,,---,0.00,VWS V14.01,2013-05-06 15:35:00,
2013-05-06 09:40:00,61.4,24.3,29.96,SE,135,4.7,4.7,24,0.00,,---,0.00,VWS V14.01,2013-05-06 15:40:00,
2013-05-06 09:45:00,60.8,23.8,29.96,SSE,158,5.4,5.4,24,0.00,,---,0.00,VWS V14.01,2013-05-06 15:45:00,
2013-05-06 09:50:00,60.5,29.7,29.97,SE,135,6.9,6.9,31,0.00,,---,0.00,VWS V14.01,2013-05-06 15:50:00,
2013-05-06 09:55:00,60.1,24.2,29.96,SE,135,6.9,6.9,25,0.00,,---,0.00,VWS V14.01,2013-05-06 15:55:00,
2013-05-06 10:00:00,60.8,23.8,29.97,South,180,6.5,6.5,24,0.00,,---,0.00,VWS V14.01,2013-05-06 16:00:00,
2013-05-06 10:05:00,60.8,24.8,29.98,SSE,158,6.3,6.3,25,0.00,,---,0.00,VWS V14.01,2013-05-06 16:05:00,
2013-05-06 10:10:00,61.0,24.0,29.98,SW,225,5.8,5.8,24,0.00,,---,0.00,VWS V14.01,2013-05-06 16:10:00,
2013-05-06 10:15:00,60.5,24.5,29.98,SW,225,5.4,5.4,25,0.00,,---,0.00,VWS V14.01,2013-05-06 16:15:00,
2013-05-06 10:20:00,59.2,33.6,29.98,SSW,202,8.5,8.5,38,0.00,,---,0.00,VWS V14.01,2013-05-06 16:20:00,
2013-05-06 10:25:00,58.0,35.1,29.99,SW,225,6.9,6.9,42,0.00,,---,0.00,VWS V14.01,2013-05-06 16:25:00,
2013-05-06 10:30:00,56.9,35.2,29.99,SSW,202,6.7,6.7,44,0.00,,---,0.00,VWS V14.01,2013-05-06 16:30:00,
2013-05-06 10:35:00,56.7,36.2,29.99,SSW,202,8.3,8.3,46,0.00,,---,0.00,VWS V14.01,2013-05-06 16:35:00,
2013-05-06 10:40:00,56.7,35.6,29.99,SW,225,15.0,15.0,45,0.00,,---,0.00,VWS V14.01,2013-05-06 16:40:00,
2013-05-06 10:45:00,57.2,36.1,29.99,SSW,202,5.4,5.4,45,0.00,,---,0.00,VWS V14.01,2013-05-06 16:45:00,
2013-05-06 10:50:00,58.3,37.6,29.99,South,180,4.7,4.7,46,0.00,,---,0.00,VWS V14.01,2013-05-06 16:50:00,
2013-05-06 10:55:00,58.7,37.4,29.99,South,180,5.4,5.4,45,0.00,,---,0.00,VWS V14.01,2013-05-06 16:55:00,
2013-05-06 11:00:00,58.5,37.2,29.99,South,180,5.4,5.4,45,0.00,,---,0.00,VWS V14.01,2013-05-06 17:00:00,
2013-05-06 11:05:00,58.9,37.6,29.99,South,180,4.5,4.5,45,0.00,,---,0.00,VWS V14.01,2013-05-06 17:05:00,
2013-05-06 11:10:00,59.4,38.6,29.99,South,180,1.3,1.3,46,0.00,,---,0.00,VWS V14.01,2013-05-06 17:10:00,
2013-05-06 11:15:00,59.8,37.9,29.98,SSE,158,2.9,2.9,44,0.00,,---,0.00,VWS V14.01,2013-05-06 17:15:00,
2013-05-06 11:20:00,59.9,36.2,29.98,ESE,112,3.1,3.1,41,0.00,,---,0.00,VWS V14.01,2013-05-06 17:20:00,
2013-05-06 11:25:00,60.3,35.9,29.98,SE,135,2.0,2.0,40,0.00,,---,0.00,VWS V14.01,2013-05-06 17:25:00,
2013-05-06 11:30:00,59.8,36.1,29.98,South,180,3.1,3.1,41,0.00,,---,0.00,VWS V14.01,2013-05-06 17:30:00,
2013-05-06 11:35:00,58.9,36.5,29.98,South,180,4.7,4.7,43,0.00,,---,0.00,VWS V14.01,2013-05-06 17:35:00,
2013-05-06 11:40:00,58.5,37.2,29.98,SSE,158,3.8,3.8,45,0.00,,---,0.00,VWS V14.01,2013-05-06 17:40:00,
2013-05-06 11:45:00,59.0,37.7,29.98,SSE,158,6.0,6.0,45,0.00,,---,0.00,VWS V14.01,2013-05-06 17:45:00,
2013-05-06 11:50:00,59.2,36.7,29.98,South,180,5.8,5.8,43,0.00,,---,0.00,VWS V14.01,2013-05-06 17:50:00,
2013-05-06 11:55:00,60.5,36.7,29.98,SSW,202,7.6,7.6,41,0.00,,---,0.00,VWS V14.01,2013-05-06 17:55:00,
2013-05-06 12:00:00,61.4,36.9,29.98,South,180,8.5,8.5,40,0.00,,---,0.00,VWS V14.01,2013-05-06 18:00:00,
2013-05-06 12:05:00,61.4,36.2,29.98,SSW,202,10.3,10.3,39,0.00,,---,0.00,VWS V14.01,2013-05-06 18:05:00,
2013-05-06 12:10:00,61.9,36.7,29.98,South,180,8.1,8.1,39,0.00,,---,0.00,VWS V14.01,2013-05-06 18:10:00,
2013-05-06 12:15:00,61.4,36.9,29.98,South,180,6.9,6.9,40,0.00,,---,0.00,VWS V14.01,2013-05-06 18:15:00,
2013-05-06 12:20:00,59.9,37.4,29.98,SW,225,8.3,8.3,43,0.00,,---,0.00,VWS V14.01,2013-05-06 18:20:00,
2013-05-06 12:25:00,60.7,38.1,29.98,WSW,248,4.9,4.9,43,0.00,,---,0.00,VWS V14.01,2013-05-06 18:25:00,
2013-05-06 12:30:00,61.2,38.5,29.98,SW,225,4.7,4.7,43,0.00,,---,0.00,VWS V14.01,2013-05-06 18:30:00,
2013-05-06 12:35:00,60.7,37.5,29.98,South,180,14.3,14.3,42,0.00,,---,0.00,VWS V14.01,2013-05-06 18:35:00,
2013-05-06 12:40:00,60.7,37.5,29.98,SSW,202,5.6,5.6,42,0.00,,---,0.00,VWS V14.01,2013-05-06 18:40:00,
2013-05-06 12:45:00,61.0,37.8,29.98,SSW,202,13.0,13.0,42,0.00,,---,0.00,VWS V14.01,2013-05-06 18:45:00,
2013-05-06 12:50:00,60.8,37.0,29.98,WSW,248,8.3,8.3,41,0.00,,---,0.00,VWS V14.01,2013-05-06 18:50:00,
2013-05-06 12:55:00,61.4,36.9,29.98,SSE,158,5.8,5.8,40,0.00,,---,0.00,VWS V14.01,2013-05-06 18:55:00,
2013-05-06 13:00:00,61.2,36.7,29.98,SSE,158,7.6,7.6,40,0.00,,---,0.00,VWS V14.01,2013-05-06 19:00:00,
2013-05-06 13:05:00,61.2,36.1,29.98,SW,225,11.4,11.4,39,0.00,,---,0.00,VWS V14.01,2013-05-06 19:05:00,
2013-05-06 13:10:00,61.0,36.5,29.98,SW,225,9.2,9.2,40,0.00,,---,0.00,VWS V14.01,2013-05-06 19:10:00,
2013-05-06 13:15:00,60.5,36.1,29.98,SW,225,8.3,8.3,40,0.00,,---,0.00,VWS V14.01,2013-05-06 19:15:00,
2013-05-06 13:20:00,60.8,36.3,29.98,South,180,6.0,6.0,40,0.00,,---,0.00,VWS V14.01,2013-05-06 19:20:00,
2013-05-06 13:25:00,61.2,36.1,29.98,South,180,4.9,4.9,39,0.00,,---,0.00,VWS V14.01,2013-05-06 19:25:00,
2013-05-06 13:30:00,62.1,36.2,29.97,SSW,202,12.3,12.3,38,0.00,,---,0.00,VWS V14.01,2013-05-06 19:30:00,
2013-05-06 13:35:00,62.6,36.0,29.98,South,180,6.5,6.5,37,0.00,,---,0.00,VWS V14.01,2013-05-06 19:35:00,
2013-05-06 13:40:00,62.8,36.2,29.97,SSW,202,5.8,5.8,37,0.00,,---,0.00,VWS V14.01,2013-05-06 19:40:00,
2013-05-06 13:45:00,63.7,35.6,29.97,SW,225,10.1,10.1,35,0.00,,---,0.00,VWS V14.01,2013-05-06 19:45:00,
2013-05-06 13:50:00,61.7,35.2,29.97,SW,225,6.0,6.0,37,0.00,,---,0.00,VWS V14.01,2013-05-06 19:50:00,
2013-05-06 13:55:00,62.5,35.2,29.97,SW,225,6.3,6.3,36,0.00,,---,0.00,VWS V14.01,2013-05-06 19:55:00,
2013-05-06 14:00:00,62.8,34.0,29.97,South,180,6.0,6.0,34,0.00,,---,0.00,VWS V14.01,2013-05-06 20:00:00,
2013-05-06 14:05:00,62.6,33.9,29.97,SSW,202,4.9,4.9,34,0.00,,---,0.00,VWS V14.01,2013-05-06 20:05:00,
2013-05-06 14:10:00,63.0,34.2,29.97,West,270,4.7,4.7,34,0.00,,---,0.00,VWS V14.01,2013-05-06 20:10:00,
2013-05-06 14:15:00,62.8,35.5,29.97,WSW,248,3.8,3.8,36,0.00,,---,0.00,VWS V14.01,2013-05-06 20:15:00,
2013-05-06 14:20:00,63.4,35.3,29.97,WSW,248,5.1,5.1,35,0.00,,---,0.00,VWS V14.01,2013-05-06 20:20:00,
2013-05-06 14:25:00,63.0,34.2,29.96,SW,225,7.4,7.4,34,0.00,,---,0.00,VWS V14.01,2013-05-06 20:25:00,
2013-05-06 14:30:00,63.9,35.0,29.96,SSW,202,5.4,5.4,34,0.00,,---,0.00,VWS V14.01,2013-05-06 20:30:00,
2013-05-06 14:35:00,63.9,35.0,29.96,WNW,292,5.4,5.4,34,0.00,,---,0.00,VWS V14.01,2013-05-06 20:35:00,
2013-05-06 14:40:00,64.8,35.0,29.96,SSW,202,6.9,6.9,33,0.00,,---,0.00,VWS V14.01,2013-05-06 20:40:00,
2013-05-06 14:45:00,64.4,33.9,29.96,South,180,5.8,5.8,32,0.00,,---,0.00,VWS V14.01,2013-05-06 20:45:00,
2013-05-06 14:50:00,65.0,32.8,29.96,SW,225,6.9,6.9,30,0.00,,---,0.00,VWS V14.01,2013-05-06 20:50:00,
2013-05-06 14:55:00,65.0,33.7,29.96,West,270,3.4,3.4,31,0.00,,---,0.00,VWS V14.01,2013-05-06 20:55:00,
2013-05-06 15:00:00,65.5,33.3,29.96,SW,225,6.3,6.3,30,0.00,,---,0.00,VWS V14.01,2013-05-06 21:00:00,
2013-05-06 15:05:00,65.3,33.1,29.96,SW,225,4.7,4.7,30,0.00,,---,0.00,VWS V14.01,2013-05-06 21:05:00,
2013-05-06 15:10:00,64.4,32.3,29.96,SW,225,9.4,9.4,30,0.00,,---,0.00,VWS V14.01,2013-05-06 21:10:00,
2013-05-06 15:15:00,63.5,32.3,29.96,SSW,202,1.1,1.1,31,0.00,,---,0.00,VWS V14.01,2013-05-06 21:15:00,
2013-05-06 15:20:00,65.2,33.0,29.95,SE,135,6.0,6.0,30,0.00,,---,0.00,VWS V14.01,2013-05-06 21:20:00,
2013-05-06 15:25:00,66.4,33.2,29.95,SSW,202,2.7,2.7,29,0.00,,---,0.00,VWS V14.01,2013-05-06 21:25:00,
2013-05-06 15:30:00,65.9,31.9,29.95,SW,225,4.5,4.5,28,0.00,,---,0.00,VWS V14.01,2013-05-06 21:30:00,
2013-05-06 15:35:00,65.2,32.2,29.95,WSW,248,2.5,2.5,29,0.00,,---,0.00,VWS V14.01,2013-05-06 21:35:00,
2013-05-06 15:40:00,66.1,30.2,29.95,SW,225,5.6,5.6,26,0.00,,---,0.00,VWS V14.01,2013-05-06 21:40:00,
2013-05-06 15:45:00,66.6,29.7,29.95,SSW,202,10.3,10.3,25,0.00,,---,0.00,VWS V14.01,2013-05-06 21:45:00,
2013-05-06 15:50:00,65.7,29.9,29.95,SSW,202,4.9,4.9,26,0.00,,---,0.00,VWS V14.01,2013-05-06 21:50:00,
2013-05-06 15:55:00,67.3,29.3,29.95,WSW,248,8.1,8.1,24,0.00,,---,0.00,VWS V14.01,2013-05-06 21:55:00,
2013-05-06 16:00:00,66.6,29.7,29.95,SSW,202,11.0,11.0,25,0.00,,---,0.00,VWS V14.01,2013-05-06 22:00:00,
2013-05-06 16:05:00,67.7,30.6,29.94,SSW,202,4.0,4.0,25,0.00,,---,0.00,VWS V14.01,2013-05-06 22:05:00,
2013-05-06 16:10:00,67.5,30.5,29.94,SSW,202,10.1,10.1,25,0.00,,---,0.00,VWS V14.01,2013-05-06 22:10:00,
2013-05-06 16:15:00,65.9,29.1,29.94,SW,225,5.4,5.4,25,0.00,,---,0.00,VWS V14.01,2013-05-06 22:15:00,
2013-05-06 16:20:00,65.5,29.7,29.94,West,270,2.5,2.5,26,0.00,,---,0.00,VWS V14.01,2013-05-06 22:20:00,
2013-05-06 16:25:00,66.6,29.7,29.94,SSW,202,10.5,10.5,25,0.00,,---,0.00,VWS V14.01,2013-05-06 22:25:00,
2013-05-06 16:30:00,67.1,30.1,29.94,SSW,202,7.4,7.4,25,0.00,,---,0.00,VWS V14.01,2013-05-06 22:30:00,
2013-05-06 16:35:00,67.3,30.3,29.94,SSW,202,5.4,5.4,25,0.00,,---,0.00,VWS V14.01,2013-05-06 22:35:00,
2013-05-06 16:40:00,66.6,29.7,29.93,South,180,4.0,4.0,25,0.00,,---,0.00,VWS V14.01,2013-05-06 22:40:00,
2013-05-06 16:45:00,67.7,30.6,29.93,SSW,202,4.7,4.7,25,0.00,,---,0.00,VWS V14.01,2013-05-06 22:45:00,
2013-05-06 16:50:00,68.8,30.6,29.93,SSW,202,5.4,5.4,24,0.00,,---,0.00,VWS V14.01,2013-05-06 22:50:00,
2013-05-06 16:55:00,68.6,30.4,29.93,SSW,202,3.4,3.4,24,0.00,,---,0.00,VWS V14.01,2013-05-06 22:55:00,
2013-05-06 17:00:00,69.1,29.8,29.93,SSW,202,1.1,1.1,23,0.00,,---,0.00,VWS V14.01,2013-05-06 23:00:00,
2013-05-06 17:05:00,69.5,30.1,29.93,SW,225,0.9,0.9,23,0.00,,---,0.00,VWS V14.01,2013-05-06 23:05:00,
2013-05-06 17:10:00,70.9,30.2,29.93,West,270,3.4,3.4,22,0.00,,---,0.00,VWS V14.01,2013-05-06 23:10:00,
2013-05-06 17:15:00,69.1,29.8,29.93,SSW,202,4.7,4.7,23,0.00,,---,0.00,VWS V14.01,2013-05-06 23:15:00,
2013-05-06 17:20:00,67.9,29.8,29.93,West,270,2.5,2.5,24,0.00,,---,0.00,VWS V14.01,2013-05-06 23:20:00,
2013-05-06 17:25:00,67.7,29.6,29.93,SSW,202,1.8,1.8,24,0.00,,---,0.00,VWS V14.01,2013-05-06 23:25:00,
2013-05-06 17:30:00,69.1,28.7,29.93,SSW,202,9.2,9.2,22,0.00,,---,0.00,VWS V14.01,2013-05-06 23:30:00,
2013-05-06 17:35:00,68.4,29.2,29.93,WSW,248,2.7,2.7,23,0.00,,---,0.00,VWS V14.01,2013-05-06 23:35:00,
2013-05-06 17:40:00,68.6,29.4,29.93,SW,225,4.3,4.3,23,0.00,,---,0.00,VWS V14.01,2013-05-06 23:40:00,
2013-05-06 17:45:00,68.0,26.6,29.93,SSW,202,10.7,10.7,21,0.00,,---,0.00,VWS V14.01,2013-05-06 23:45:00,
2013-05-06 17:50:00,67.5,27.4,29.93,SSW,202,5.1,5.1,22,0.00,,---,0.00,VWS V14.01,2013-05-06 23:50:00,
2013-05-06 17:55:00,68.2,26.8,29.92,SSW,202,9.2,9.2,21,0.00,,---,0.00,VWS V14.01,2013-05-06 23:55:00,
2013-05-06 18:00:00,67.7,27.5,29.93,South,180,7.8,7.8,22,0.00,,---,0.00,VWS V14.01,2013-05-07 00:00:00,
2013-05-06 18:05:00,67.3,27.2,29.93,SW,225,7.6,7.6,22,0.00,,---,0.00,VWS V14.01,2013-05-07 00:05:00,
2013-05-06 18:10:00,67.3,27.2,29.93,SSW,202,3.1,3.1,22,0.00,,---,0.00,VWS V14.01,2013-05-07 00:10:00,
2013-05-06 18:15:00,67.3,27.2,29.93,West,270,7.6,7.6,22,0.00,,---,0.00,VWS V14.01,2013-05-07 00:15:00,
2013-05-06 18:20:00,67.7,26.4,29.93,WNW,292,4.7,4.7,21,0.00,,---,0.00,VWS V14.01,2013-05-07 00:20:00,
2013-05-06 18:25:00,68.6,27.1,29.92,SSW,202,9.2,9.2,21,0.00,,---,0.00,VWS V14.01,2013-05-07 00:25:00,
2013-05-06 18:30:00,69.1,27.6,29.92,West,270,8.5,8.5,21,0.00,,---,0.00,VWS V14.01,2013-05-07 00:30:00,
2013-05-06 18:35:00,68.6,27.1,29.92,West,270,8.5,8.5,21,0.00,,---,0.00,VWS V14.01,2013-05-07 00:35:00,
2013-05-06 18:40:00,68.0,26.6,29.92,SSW,202,6.0,6.0,21,0.00,,---,0.00,VWS V14.01,2013-05-07 00:40:00,
2013-05-06 18:45:00,68.9,27.4,29.92,SW,225,4.7,4.7,21,0.00,,---,0.00,VWS V14.01,2013-05-07 00:45:00,
2013-05-06 18:50:00,69.1,27.6,29.92,SSW,202,7.2,7.2,21,0.00,,---,0.00,VWS V14.01,2013-05-07 00:50:00,
2013-05-06 18:55:00,68.6,27.1,29.92,SSW,202,6.3,6.3,21,0.00,,---,0.00,VWS V14.01,2013-05-07 00:55:00,
2013-05-06 19:00:00,68.8,27.3,29.93,WSW,248,4.7,4.7,21,0.00,,---,0.00,VWS V14.01,2013-05-07 01:00:00,
2013-05-06 19:05:00,69.1,27.6,29.93,South,180,1.8,1.8,21,0.00,,---,0.00,VWS V14.01,2013-05-07 01:05:00,
2013-05-06 19:10:00,68.6,27.1,29.93,SW,225,4.0,4.0,21,0.00,,---,0.00,VWS V14.01,2013-05-07 01:10:00,
2013-05-06 19:15:00,68.4,27.0,29.93,SW,225,3.8,3.8,21,0.00,,---,0.00,VWS V14.01,2013-05-07 01:15:00,
2013-05-06 19:20:00,68.0,27.8,29.93,SSW,202,6.9,6.9,22,0.00,,---,0.00,VWS V14.01,2013-05-07 01:20:00,
2013-05-06 19:25:00,67.7,27.5,29.93,West,270,7.6,7.6,22,0.00,,---,0.00,VWS V14.01,2013-05-07 01:25:00,
2013-05-06 19:30:00,67.1,27.0,29.93,SW,225,4.7,4.7,22,0.00,,---,0.00,VWS V14.01,2013-05-07 01:30:00,
2013-05-06 19:35:00,66.8,26.8,29.93,West,270,5.1,5.1,22,0.00,,---,0.00,VWS V14.01,2013-05-07 01:35:00,
2013-05-06 19:39:00,66.6,26.6,29.93,WSW,248,2.2,2.2,22,0.00,,---,0.00,VWS V14.01,2013-05-07 01:39:00,
2013-05-06 19:44:00,66.2,27.3,29.93,SW,225,2.2,2.2,23,0.00,,---,0.00,VWS V14.01,2013-05-07 01:44:00,
2013-05-06 19:49:00,66.1,27.2,29.93,SW,225,2.5,2.5,23,0.00,,---,0.00,VWS V14.01,2013-05-07 01:49:00,
2013-05-06 19:54:00,66.1,27.2,29.93,WSW,248,0.4,0.4,23,0.00,,---,0.00,VWS V14.01,2013-05-07 01:54:00,
2013-05-06 19:59:00,65.9,27.1,29.93,West,270,1.6,1.6,23,0.00,,---,0.00,VWS V14.01,2013-05-07 01:59:00,
2013-05-06 20:04:00,65.7,26.9,29.94,SSW,202,0.4,0.4,23,0.00,,---,0.00,VWS V14.01,2013-05-07 02:04:00,
2013-05-06 20:09:00,65.5,26.8,29.94,SW,225,1.1,1.1,23,0.00,,---,0.00,VWS V14.01,2013-05-07 02:09:00,
2013-05-06 20:14:00,65.3,26.6,29.94,SW,225,0.7,0.7,23,0.00,,---,0.00,VWS V14.01,2013-05-07 02:14:00,
2013-05-06 20:19:00,65.2,26.5,29.94,WSW,248,0.7,0.7,23,0.00,,---,0.00,VWS V14.01,2013-05-07 02:19:00,
2013-05-06 20:24:00,65.0,27.4,29.94,SSW,202,1.1,1.1,24,0.00,,---,0.00,VWS V14.01,2013-05-07 02:24:00,
2013-05-06 20:29:00,65.0,27.4,29.94,WSW,248,0.4,0.4,24,0.00,,---,0.00,VWS V14.01,2013-05-07 02:29:00,
2013-05-06 20:34:00,64.8,27.2,29.94,WSW,248,1.8,1.8,24,0.00,,---,0.00,VWS V14.01,2013-05-07 02:34:00,
2013-05-06 20:39:00,64.8,27.2,29.94,WSW,248,0.9,0.9,24,0.00,,---,0.00,VWS V14.01,2013-05-07 02:39:00,
2013-05-06 20:44:00,64.6,27.0,29.94,WSW,248,4.0,4.0,24,0.00,,---,0.00,VWS V14.01,2013-05-07 02:44:00,
2013-05-06 20:49:00,64.6,27.0,29.94,WSW,248,1.6,1.6,24,0.00,,---,0.00,VWS V14.01,2013-05-07 02:49:00,
2013-05-06 20:54:00,64.4,26.9,29.95,West,270,1.8,1.8,24,0.00,,---,0.00,VWS V14.01,2013-05-07 02:54:00,
2013-05-06 20:59:00,64.4,26.9,29.95,WSW,248,0.2,0.2,24,0.00,,---,0.00,VWS V14.01,2013-05-07 02:59:00,
2013-05-06 21:04:00,64.3,27.8,29.95,WSW,248,1.1,1.1,25,0.00,,---,0.00,VWS V14.01,2013-05-07 03:04:00,
2013-05-06 21:09:00,64.1,27.6,29.95,WSW,248,1.6,1.6,25,0.00,,---,0.00,VWS V14.01,2013-05-07 03:09:00,
2013-05-06 21:14:00,64.1,27.6,29.95,WSW,248,1.6,1.6,25,0.00,,---,0.00,VWS V14.01,2013-05-07 03:14:00,
2013-05-06 21:19:00,64.3,27.8,29.95,WSW,248,1.3,1.3,25,0.00,,---,0.00,VWS V14.01,2013-05-07 03:19:00,
2013-05-06 21:24:00,64.1,27.6,29.96,WSW,248,1.8,1.8,25,0.00,,---,0.00,VWS V14.01,2013-05-07 03:24:00,
2013-05-06 21:29:00,64.1,27.6,29.96,WSW,248,1.3,1.3,25,0.00,,---,0.00,VWS V14.01,2013-05-07 03:29:00,
2013-05-06 21:34:00,64.1,28.5,29.96,WSW,248,2.2,2.2,26,0.00,,---,0.00,VWS V14.01,2013-05-07 03:34:00,
2013-05-06 21:39:00,64.1,28.5,29.96,WSW,248,2.5,2.5,26,0.00,,---,0.00,VWS V14.01,2013-05-07 03:39:00,
2013-05-06 21:44:00,64.1,28.5,29.96,NW,315,2.0,2.0,26,0.00,,---,0.00,VWS V14.01,2013-05-07 03:44:00,
2013-05-06 21:49:00,63.9,27.4,29.96,WNW,292,1.1,1.1,25,0.00,,---,0.00,VWS V14.01,2013-05-07 03:49:00,
2013-05-06 21:54:00,63.7,27.2,29.96,NNW,338,0.7,0.7,25,0.00,,---,0.00,VWS V14.01,2013-05-07 03:54:00,
2013-05-06 21:59:00,63.4,27.0,29.96,West,270,0.9,0.9,25,0.00,,---,0.00,VWS V14.01,2013-05-07 03:59:00,
2013-05-06 22:01:00,63.4,27.0,29.96,West,270,0.9,0.9,25,0.00,,---,0.00,VWS V14.01,2013-05-07 04:01:00,
2013-05-06 22:06:00,63.0,28.5,29.96,West,270,0.9,0.9,27,0.00,,---,0.00,VWS V14.01,2013-05-07 04:06:00,
2013-05-06 22:11:00,62.8,27.4,29.97,West,270,0.2,0.2,26,0.00,,---,0.00,VWS V14.01,2013-05-07 04:11:00,
2013-05-06 22:16:00,62.6,28.2,29.97,West,270,0.4,0.4,27,0.00,,---,0.00,VWS V14.01,2013-05-07 04:16:00,
2013-05-06 22:21:00,62.5,28.1,29.97,WSW,248,0.9,0.9,27,0.00,,---,0.00,VWS V14.01,2013-05-07 04:21:00,
2013-05-06 22:26:00,62.6,28.2,29.97,WSW,248,0.0,0.0,27,0.00,,---,0.00,VWS V14.01,2013-05-07 04:26:00,
2013-05-06 22:31:00,62.8,28.4,29.97,SW,225,0.4,0.4,27,0.00,,---,0.00,VWS V14.01,2013-05-07 04:31:00,
2013-05-06 22:36:00,63.0,28.5,29.97,SSW,202,0.4,0.7,27,0.00,,---,0.00,VWS V14.01,2013-05-07 04:36:00,
2013-05-06 22:41:00,63.0,28.5,29.98,SSW,202,0.4,0.4,27,0.00,,---,0.00,VWS V14.01,2013-05-07 04:41:00,
2013-05-06 22:46:00,63.2,29.6,29.98,SSW,202,1.1,1.1,28,0.00,,---,0.00,VWS V14.01,2013-05-07 04:46:00,
2013-05-06 22:51:00,63.0,29.4,29.98,SSW,202,2.0,2.0,28,0.00,,---,0.00,VWS V14.01,2013-05-07 04:51:00,
2013-05-06 22:56:00,62.6,29.1,29.98,SW,225,0.4,0.4,28,0.00,,---,0.00,VWS V14.01,2013-05-07 04:56:00,
2013-05-06 23:01:00,62.3,29.7,29.98,WNW,292,0.2,0.2,29,0.00,,---,0.00,VWS V14.01,2013-05-07 05:01:00,
2013-05-06 23:06:00,62.1,29.5,29.98,NNW,338,0.0,0.0,29,0.00,,---,0.00,VWS V14.01,2013-05-07 05:06:00,
2013-05-06 23:11:00,61.7,29.1,29.98,WNW,292,0.2,0.2,29,0.00,,---,0.00,VWS V14.01,2013-05-07 05:11:00,
2013-05-06 23:16:00,61.7,30.0,29.98,West,270,0.0,0.0,30,0.00,,---,0.00,VWS V14.01,2013-05-07 05:16:00,
2013-05-06 23:21:00,61.2,29.5,29.98,West,270,0.0,0.0,30,0.00,,---,0.00,VWS V14.01,2013-05-07 05:21:00,
2013-05-06 23:26:00,61.0,31.7,29.98,NE,45,0.9,0.9,33,0.00,,---,0.00,VWS V14.01,2013-05-07 05:26:00,
2013-05-06 23:31:00,60.8,33.7,29.98,ESE,112,0.4,0.4,36,0.00,,---,0.00,VWS V14.01,2013-05-07 05:31:00,
2013-05-06 23:36:00,60.8,33.7,29.99,South,180,0.4,0.4,36,0.00,,---,0.00,VWS V14.01,2013-05-07 05:36:00,
2013-05-06 23:41:00,60.8,33.7,29.98,South,180,0.0,0.0,36,0.00,,---,0.00,VWS V14.01,2013-05-07 05:41:00,
2013-05-06 23:46:00,60.5,32.0,29.98,South,180,0.0,0.0,34,0.00,,---,0.00,VWS V14.01,2013-05-07 05:46:00,
2013-05-06 23:51:00,60.1,33.8,29.99,South,180,0.0,0.0,37,0.00,,---,0.00,VWS V14.01,2013-05-07 05:51:00,
2013-05-06 23:56:00,59.9,31.5,29.99,South,180,0.0,0.0,34,0.00,,---,0.00,VWS V14.01,2013-05-07 05:56:00,